Skibsliste

Last updated: 21-09-2019 03:34

Ship name Call sign IMO Agent Dato Tid Kaj Arrived From Purpose of call Cargo Loaded in/for Hjemsted ETD Date ETD Time GT Deadweight Width (BR) DR ANK. Length (LOA)
ARRIVER OWKJ2 9669005 Northern Offshore Services A/S 20-09-2019 20:00 24 Hvide Sande Passenger call Passengers ESBJERG 21-09-2019 07:22 131 55 8,0 2,1 22,0
MO1 2HCP9 9999999 Dantysk Sandbank Offshore Wind GmbH & Co. KG 20-09-2019 19:45 3 DK OFFSHORE INSTALLATIONS Passenger call Passengers SCARBOROUGH 21-09-2019 07:22 71 0 9,5 2,1 25,0
SEA GOLDCREST LAMG5 9692612 Niels Winther Maritime ApS 20-09-2019 18:05 505 DK OFFSHORE INSTALLATIONS Load Offshore cargo BERGEN 22-09-2019 18:00 4983 4918 20,0 5,5 89,0
DJURS WIND OZAD2 9657569 Ørsted Horns Rev 2 A/S 20-09-2019 18:00 24 DK OFFSHORE INSTALLATIONS Passenger call Passengers GRENÅ 21-09-2019 07:33 117 22 5,9 2,1 25,1
WIND SUPPLIER OWBZ2 9566148 Ørsted Horns Rev 2 A/S 20-09-2019 18:00 24 DK OFFSHORE INSTALLATIONS Passenger call Passengers ESBJERG 21-09-2019 07:22 170 0 6,9 2,1 32,2
HAVILA HEROY LCCC 9455832 Total E&P Danmark A/S 20-09-2019 17:10 504 DK OFFSHORE INSTALLATIONS Discharge/load Offshore cargo FOSNAVÅG 21-09-2019 16:00 3062 4100 17,6 5,0 80,4
CONNECTOR EXPRESS OYOJ2 9244568 NorSea Group Denmark A/S 20-09-2019 17:00 501 OTHER DENMARK Discharge/load FREDERICIA 21-09-2019 18:00 4030 4505 19,0 5,4 90,2
ELISABETH M OXRF2 4400208 KEM-Offshore ApS 20-09-2019 17:00 21 DK OFFSHORE INSTALLATIONS Passenger call ESBJERG 21-09-2019 07:22 66 0 4,9 0,0 20,8
ORKAMA M OZBO2 9999999 KEM-Offshore ApS 20-09-2019 17:00 21 Hvide Sande Passenger call Passengers ESBJERG 21-09-2019 07:22 74 0 4,9 2,0 22,4
SC SAPPHIRE MCQL6 9999999 North Sea Hagland Shipbrokers ApS. 20-09-2019 16:30 4 DK OFFSHORE INSTALLATIONS Passenger call Passengers LONDON 21-09-2019 07:22 91 0 7,0 2,1 24,0
ESVAGT BETA OUJM2 8817746 Esvagt A/S 20-09-2019 15:00 302 DK OFFSHORE INSTALLATIONS Crew change/Provion/Bunkers ESBJERG 24-09-2019 00:05 2360 1157 14,6 5,4 76,6
RIVER TRADER D5CD5 8813051 Jutlandia Terminal A/S 20-09-2019 11:05 604 OTHER DENMARK Discharge Wind mill equipment LIBERIA 23-09-2019 22:00 794 1399 9,0 2,5 58,0
BOLDER OUYO2 9656993 Northern Offshore Services A/S 20-09-2019 09:50 3 DK OFFSHORE INSTALLATIONS Passenger call Passengers Fredericia 21-09-2019 07:22 118 55 7,0 2,1 20,9
WINDCAT 35 2HGJ9 KEM-Offshore ApS 20-09-2019 09:30 21 DK OFFSHORE INSTALLATIONS Passenger call Passengers FLEETWOOD 21-09-2019 07:22 33 0 6,0 2,1 18,0
KEM 1 OWQN2 9750866 KEM-Offshore ApS 20-09-2019 09:25 4 DK OFFSHORE INSTALLATIONS Passenger call Passengers Esbjerg 21-09-2019 07:22 127 18 7,5 2,1 26,5
HST HUDSSON J8B5716 9851684 Blue Water Shipping A/S 20-09-2019 08:55 2 Great Yarmouth Passenger call Passengers KINGSTOWN 31-10-2019 18:22 135 30 10,1 3,0 27,0
IDA SARA (E 710) OYHO 9999999 Fiskeriselskabet Ida Sara E 710 ApS 20-09-2019 08:10 12 OTHER DENMARK Discharge Shrimps ESBJERG 25-09-2019 22:22 62 0 5,8 2,5 17,2
ANNA (NOR 214) DQUQ 8933576 ANNA ( NOR 214 ) 20-09-2019 03:15 14 OTHER DENMARK Discharge Bivalves (muslinger) Norddeich 22-09-2019 22:22 193 235 10,0 3,5 35,2
LOKE R OWAX2 9999999 Rohde Nielsen A/S 20-09-2019 02:20 900 Aalborg Towing of barge GRENÅ 22-09-2019 22:22 182 0 7,0 3,0 23,0
HERMIT HORIZON MCVV6 9747493 Blue Water Shipping A/S 19-09-2019 18:55 117 Aberdeen Discharge Pipes ABERDEEN 23-09-2019 18:22 3515 4000 18,0 6,0 81,7
RIX STREAM D5TC3 9111125 Jutlandia Terminal A/S 18-09-2019 19:15 803 Rostock Load General cargo Monrovia 21-09-2019 22:22 1589 2684 11,6 3,2 82,5
MILA V2FX5 9501681 Blue Water Shipping A/S 18-09-2019 14:20 602 Gävle Load Wind turbines SAINT JOHN´S 21-09-2019 22:22 6310 7500 16,5 5,4 129,0
KOMMANDOR SUSAN MELY9 9177844 GAC Denmark A/S 17-09-2019 22:30 509 DK OFFSHORE INSTALLATIONS Mobilisation LONDON 23-09-2019 22:22 3424 4159 19,7 5,6 83,7
ISLAND DILIGENCE LAVG7 9759903 Jutlandia Terminal A/S 16-09-2019 21:30 401 Rotterdam Demobilisation STAVANGER 22-09-2019 22:22 4764 4200 18,5 5,2 86,0
GLAREA OXQK 7041170 NCC Industry A/S 15-09-2019 14:25 717 DK AGGREGATES EXTRACTION AREAS Discharge Gravel ESBJERG 30-09-2019 22:22 1607 2266 14,1 5,5 82,0
NAO PROSPER LASS7 9613707 Blue Water Shipping A/S 15-09-2019 09:20 103 Aberdeen Load Offshore cargo Aalesund 21-09-2019 12:22 3644 0 18,0 4,8 83,4
WILHELMINA (E 78) OUSS 8718811 Fiskeriselskabet Cardium A/S 15-09-2019 03:00 62 OTHER DENMARK Discharge Bivalves (muslinger) ESBJERG 30-09-2019 23:55 283 316 10,0 2,2 40,2
NAUTILUS EAOL 9237694 Blue Water Shipping A/S 11-09-2019 19:30 402 DK OFFSHORE INSTALLATIONS Crew change/Provion/Bunkers Santa Cruz de Tenerife 22-09-2019 06:00 2401 3248 16,1 6,0 73,8
HO BUGT (E 4) OU7149 9999999 Kutter Ho Bugt E 4 09-09-2019 09:00 12 OTHER DENMARK Discharge Shrimps ESBJERG 23-09-2019 07:22 19 0 5,5 2,5 16,0
ESVAGT CAROLINE OZAY2 9412593 Esvagt A/S 07-09-2019 15:30 304 DK OFFSHORE INSTALLATIONS Await orders ESBJERG 30-09-2019 23:59 963 400 11,5 4,5 45,8
KAREN M OWFL2 8228830 KEM-Offshore ApS 05-09-2019 15:15 21 OTHER DENMARK Crew change/Provion/Bunkers Esbjerg 23-09-2019 07:22 108 0 6,0 2,1 26,9
SOUNDLINK OXFT2 9999999 B B Towing og Diving A/S 04-09-2019 21:00 65 Esbjerg Towing Esbjerg 30-09-2019 23:55 30 0 4,2 1,5 13,0
DEEP ENERGY C6YL2 9481154 GAC Denmark A/S 04-09-2019 19:50 110 NO Offshore installations Await orders Nassau 20-12-2019 19:22 25378 0 31,0 8,2 194,5
EDDA FJORD LACU8 9246114 Niels Winther Maritime ApS 04-09-2019 09:35 203 Wilhelmshaven Repair Haugesund 22-09-2019 22:22 5886 6600 22,0 6,4 98,2
SCOTIA (E 567) OZYG 9999999 Tony Divers 02-09-2019 16:00 12 OTHER DENMARK Discharge Shrimps ESBJERG 22-09-2019 19:22 69 0 5,8 2,5 17,8
BLUE TERN 2FEP5 9598737 Blue Water Shipping A/S 02-09-2019 06:00 85 DK OFFSHORE INSTALLATIONS Demobilisation Dover 30-09-2019 22:22 19697 11013 50,0 6,5 151,0
STATHAV 22 OWGA2 9999999 Nordic Marine Oil A/S 01-09-2019 00:05 14 Esbjerg Bunker another vessel Skagen 30-09-2019 23:55 131 0 6,5 3,5 27,4
SVITZER HELIOS OWLX2 7321659 EM. Z. Svitzer A/S 01-09-2019 00:05 307 Esbjerg Towing ESBJERG 30-09-2019 23:55 304 650 9,8 4,7 32,9
MENJA OYIU 9189380 Molslinjen A/S 01-09-2019 00:05 300 Nordby Havn, Fanø Passenger call Passengers - cars ESBJERG 30-09-2019 23:55 751 230 13,8 2,5 49,9
SONDERHO OYVH 8946779 Molslinjen A/S 01-09-2019 00:05 209 Nordby Havn, Fanø Passenger call Passengers ESBJERG 30-09-2019 23:55 93 30 6,0 1,5 25,0
SIGYN OZHB2 9114361 EM. Z. Svitzer A/S 01-09-2019 00:05 306 OTHER DENMARK Towing Kalundborg 30-09-2019 23:55 485 311 10,8 5,0 33,8
CICALA MFBZ4 8891443 M/V ST. CICALA / John Cefferty 01-09-2019 00:05 88 Esbjerg Temporary laid up MANCHESTER 30-09-2019 23:55 270 0 8,5 1,5 30,7
FØNIKS SUPPORTER OUBJ2 8661020 Bunker One A/S 01-09-2019 00:05 7 Esbjerg Bunker another vessel københavn 30-09-2019 23:55 226 0 9,0 1,5 25,2
FENJA OYIQ 9189378 Molslinjen A/S 01-09-2019 00:05 209 Nordby Havn, Fanø Passenger call Passengers - cars ESBJERG 30-09-2019 23:55 751 230 13,8 2,5 49,9
STATHAV 9 FTJ1312 9999999 Nordic Marine Oil A/S 01-09-2019 00:05 14 Esbjerg Bunker another vessel KØBENHAVN 30-09-2019 23:55 19 0 4,3 1,5 12,4
KIRSTEN GULLEV OU5826 9999999 Nordic Marine Oil A/S 01-09-2019 00:05 14 OTHER DENMARK Bunker another vessel ESBJERG 30-09-2019 23:55 21 70 4,3 1,5 14,4
MARGRETHE M OVOR2 9999999 KEM-Offshore ApS 13-08-2019 12:40 21 DK OFFSHORE INSTALLATIONS Passenger call Passengers ESBJERG 20-09-2019 15:22 49 0 5,0 2,0 19,8
TYR R OZGD2 8642713 Rohde Nielsen A/S 09-08-2019 15:00 900 Frederikshavn Dredging GRENAA 30-09-2019 12:22 309 386 3,5 1,5 34,3
TJALFE R 5BZX4 9281889 Rohde Nielsen A/S 28-07-2019 21:00 999 Grenå Dredging Limassol 30-09-2019 12:22 777 0 11,2 0,0 57,5
KATJA (E 35) OXEL 9999999 Jan Magnussen / Kutter Katja E 35 24-07-2019 14:00 12 OTHER DENMARK Discharge Shrimps ESBJERG 20-09-2019 12:02 61 0 5,8 2,5 17,0
RUNE EGHOLM (E 426) OYCG 9999999 Fiskeriselskabet Rune Egholm E 426 22-07-2019 17:30 12 OTHER DENMARK Discharge Shrimps ESBJERG 20-09-2019 19:22 67 0 5,9 2,5 18,0
RAN XPKY 7043829 Niels Winther Maritime ApS 01-07-2019 00:05 84 OTHER DENMARK Temporary laid up THORSHAVN 30-09-2019 23:55 1100 1072 11,0 5,1 60,1
DANMARK OXDK 5086279 Esbjerg Shipyard 25-06-2019 08:55 86 Rønne Repair Copenhagen 05-12-2019 14:00 737 0 10,1 4,9 65,0
SEA COMFORT OUZK2 9674282 TP Offshore A/S 21-06-2019 11:00 5 Borkum I. Crew change/Provion/Bunkers Grenaa 22-09-2019 12:22 326 0 11,3 2,8 25,3
LYØ (MHV 904) OVLD 219000161 Lokal Støtte Element Varde 20-06-2019 00:05 307 Helgoland I. Environmental protection Esbjerg 30-09-2019 22:22 100 0 5,6 3,6 27,2
PACIFIC OSPREY 5BUF3 9621704 Swire Blue Ocean 07-04-2019 00:40 107 Rotterdam Demobilisation Limassol 31-12-2019 15:22 24586 13155 49,0 5,5 161,3
DI-JE (E 61) OWFZ 5128062 Partsrederiet E 61 Di-Je 03-02-2019 17:30 12 OTHER DENMARK Discharge Shrimps ESBJERG 31-12-2019 19:22 48 0 6,5 2,5 20,0
HEIMDAL OXQN2 9999999 KEM-Offshore ApS 10-10-2018 14:00 21 DK OFFSHORE INSTALLATIONS Passenger call Passengers ESBJERG 31-12-2019 07:22 19 10 5,0 1,5 16,1
MADOG V4DR 6615467 Malta Towage Limited 14-09-2018 14:00 89 Esbjerg Temporary laid up BASSETERRE - ST KITTS 31-12-2019 23:55 185 0 7,2 3,7 25,7
KURBERG OW2361 8600064 Thor P/F Ltd. 16-07-2018 18:35 88 Other ports, Færø Islands Temporary laid up Torshavn 31-12-2019 23:55 488 488 8,9 3,5 38,6
TORSVIK OZ2029 7807316 Thor P/F Ltd. 13-07-2018 09:30 88 Las Palmas Load Hosvik 31-12-2019 23:55 370 0 8,5 3,6 39,2
COLGA 9V9536 8751473 Dixstone Holding LtD 24-05-2018 06:22 78 OTHER DENMARK Repair Singapore 31-12-2019 23:59 9352 0 86,3 9,8 74,7
SALLING OUIG2 7431571 Salling Offshore-Service ApS 21-05-2018 18:55 59 OTHER DENMARK Crew change/Provion/Bunkers Esbjerg 31-12-2019 23:22 370 300 7,2 4,6 37,9
DIGI OVXM 9999999 Esbjerg Bedding ApS 31-01-2015 22:10 66 Hvide Sande Shelter LEMVIG 31-12-2019 23:59 29 0 4,2 1,0 15,5